Celtic Voyager — EIQN — position and weather

sailwx.info

Track history (hours):
 
Tides and Currents Weather Stations Pressure Air Temp Water Temp Dewpoint Dewpoint Depression Visibility Wind Speed Wind Dir Waves Ship Positions

Oceanographic research ship Celtic Voyager (Ireland)

Detailed information on ship capabilities available from University of Delaware's Ocean Information Center.

Last reported at 2017-Jun-23 04:57 UTC. Time now 2017-Jun-23 05:18 UTC.
Position N 53°06' W 010°09'.

Length 31 m; beam 8 m.

Type: Ship. MMSI: 250089000.

Date/timePositionNaut miles runAvg speedWind from/ knotsBaromVisibWave heightAir tempDewpointWater temp
2017-Jun-23 04:57N 53°06' W 010°09'6 9.2
2017-Jun-23 04:17N 53°04' W 010°18'  
2017-Jun-18 18:15N 52°54' W 010°47'4 9.6
2017-Jun-18 17:51N 52°56' W 010°41'20 9.5
2017-Jun-18 15:44N 53°04' W 010°11'16 9.5
2017-Jun-18 14:00N 53°11' W 009°46'  
2017-Jun-16 03:23N 53°06' W 009°22'1 2.3
2017-Jun-16 02:59N 53°06' W 009°23'2 3.4
2017-Jun-16 02:29N 53°04' W 009°24'3 6.0
2017-Jun-16 01:59N 53°02' W 009°28'4 8.8
2017-Jun-16 01:28N 52°58' W 009°32'55 9.2
2017-Jun-15 19:30N 52°14' W 010°26'44 8.0
2017-Jun-15 13:59N 51°32' W 010°10'4 8.0
2017-Jun-15 13:27N 51°30' W 010°04'4 7.9
2017-Jun-15 12:59N 51°28' W 009°59'4 7.8
2017-Jun-15 12:29N 51°27' W 009°53'4 7.8
2017-Jun-15 12:00N 51°26' W 009°47'4 7.9
2017-Jun-15 11:30N 51°25' W 009°41'4 7.9
2017-Jun-15 11:00N 51°25' W 009°35'4 8.0
2017-Jun-15 10:30N 51°25' W 009°28'4 7.8
2017-Jun-15 10:00N 51°25' W 009°22'4 7.7
2017-Jun-15 09:30N 51°25' W 009°16'4 7.5
2017-Jun-15 09:00N 51°26' W 009°10'4 7.5
2017-Jun-15 08:30N 51°26' W 009°04'4 7.5
2017-Jun-15 08:00N 51°27' W 008°58'4 7.5
2017-Jun-15 07:27N 51°27' W 008°51'4 7.4
2017-Jun-15 06:58N 51°28' W 008°46'4 7.3
2017-Jun-15 06:29N 51°28' W 008°40'3 6.9
2017-Jun-15 06:00N 51°29' W 008°35'3 6.9
2017-Jun-15 05:30N 51°29' W 008°29'3 7.0
2017-Jun-15 05:00N 51°30' W 008°24'4 7.2
2017-Jun-15 04:30N 51°30' W 008°18'4 7.2
2017-Jun-15 04:00N 51°31' W 008°12'4 7.3
2017-Jun-15 03:30N 51°31' W 008°06'4 7.3
2017-Jun-15 03:00N 51°31' W 008°01'4 7.1
2017-Jun-15 02:30N 51°32' W 007°55'4 7.3
2017-Jun-15 02:00N 51°32' W 007°49'4 7.5
2017-Jun-15 01:30N 51°32' W 007°43'4 7.5
2017-Jun-15 01:00N 51°33' W 007°37'4 7.2
2017-Jun-15 00:30N 51°34' W 007°31'3 6.7
2017-Jun-15 00:00N 51°34' W 007°26'3 6.4
2017-Jun-14 23:30N 51°34' W 007°21'2 0.5
2017-Jun-14 19:39N 51°35' W 007°18'2 5.3
2017-Jun-14 19:17N 51°35' W 007°15'2 5.6
2017-Jun-14 18:59N 51°35' W 007°12'3 5.7
2017-Jun-14 18:30N 51°35' W 007°08'1 1.8
2017-Jun-14 17:45N 51°35' W 007°10'3 8.1
2017-Jun-14 17:25N 51°35' W 007°14'2 4.3
2017-Jun-14 17:00N 51°35' W 007°17'4 7.1
2017-Jun-14 16:30N 51°35' W 007°11'4 7.2
2017-Jun-14 15:58N 51°35' W 007°05'1 2.1
2017-Jun-14 15:24N 51°35' W 007°07'3 8.1
2017-Jun-14 15:00N 51°35' W 007°12'0 0.3
2017-Jun-14 14:00N 51°36' W 007°12'4 7.7
2017-Jun-14 13:30N 51°36' W 007°06'4 7.8
2017-Jun-14 12:59N 51°36' W 006°59'4 7.9
2017-Jun-14 12:30N 51°36' W 006°53'0 0.3
2017-Jun-14 11:54N 51°36' W 006°53'7 7.6
2017-Jun-14 10:56N 51°36' W 007°04'3 5.8
2017-Jun-14 10:25N 51°36' W 006°59'4 7.7
2017-Jun-14 09:56N 51°36' W 006°53'2 1.9
2017-Jun-14 08:53N 51°37' W 006°56'0 0.3
2017-Jun-14 08:17N 51°37' W 006°56'1 2.0
2017-Jun-14 08:00N 51°36' W 006°56'6 5.6
2017-Jun-14 07:00N 51°36' W 007°05'4 6.9
2017-Jun-14 06:30N 51°36' W 006°59'4 7.0
2017-Jun-14 05:57N 51°36' W 006°53'8 4.8
2017-Jun-14 04:21N 51°36' W 007°05'3 4.9
2017-Jun-14 03:45N 51°36' W 007°10'2 7.8
2017-Jun-14 03:30N 51°36' W 007°13'1 1.3
2017-Jun-14 02:59N 51°36' W 007°14'1 2.5
2017-Jun-14 02:29N 51°36' W 007°16'4 7.7
2017-Jun-14 01:56N 51°36' W 007°09'2 1.5
2017-Jun-14 00:51N 51°36' W 007°12'3 7.9
2017-Jun-14 00:30N 51°36' W 007°16'2 3.6
2017-Jun-13 23:57N 51°36' W 007°13'4 7.8
2017-Jun-13 23:27N 51°36' W 007°07'3 3.4
2017-Jun-13 22:36N 51°36' W 007°12'4 8.2
2017-Jun-13 22:09N 51°36' W 007°18'0 3.5
2017-Jun-13 22:00N 51°37' W 007°17'1 0.3
2017-Jun-13 19:54N 51°37' W 007°18'3 7.0
2017-Jun-13 19:30N 51°37' W 007°13'6 4.8
2017-Jun-13 18:14N 51°37' W 007°04'2 7.5
2017-Jun-13 17:55N 51°36' W 006°60'3 7.6
2017-Jun-13 17:30N 51°36' W 006°55'6 1.7
2017-Jun-13 13:49N 51°42' W 006°60'3 4.3
2017-Jun-13 13:11N 51°42' W 007°04'4 7.7
2017-Jun-13 12:43N 51°38' W 007°04'2 3.2
2017-Jun-13 12:11N 51°37' W 007°04'4 7.6
2017-Jun-13 11:37N 51°37' W 006°57'1 7.6
2017-Jun-13 11:30N 51°37' W 006°55'4 6.6
2017-Jun-13 10:57N 51°37' W 006°49'  
Track history (hours):
 
Tides and Currents Weather Stations Pressure Air Temp Water Temp Dewpoint Dewpoint Depression Visibility Wind Speed Wind Dir Waves Ship Positions

Oceanographic research ship Celtic Voyager (Ireland)

Detailed information on ship capabilities available from University of Delaware's Ocean Information Center.

Last reported at 2017-Jun-23 04:57 UTC. Time now 2017-Jun-23 05:18 UTC.
Position N 53°06' W 010°09'.

Length 31 m; beam 8 m.

Type: Ship. MMSI: 250089000.

Date/timePositionNaut miles runAvg speedWind from/ knotsBaromVisibWave heightAir tempDewpointWater temp
2017-Jun-23 04:57N 53°06' W 010°09'6 9.2
2017-Jun-23 04:17N 53°04' W 010°18'  
2017-Jun-18 18:15N 52°54' W 010°47'4 9.6
2017-Jun-18 17:51N 52°56' W 010°41'20 9.5
2017-Jun-18 15:44N 53°04' W 010°11'16 9.5
2017-Jun-18 14:00N 53°11' W 009°46'  
2017-Jun-16 03:23N 53°06' W 009°22'1 2.3
2017-Jun-16 02:59N 53°06' W 009°23'2 3.4
2017-Jun-16 02:29N 53°04' W 009°24'3 6.0
2017-Jun-16 01:59N 53°02' W 009°28'4 8.8
2017-Jun-16 01:28N 52°58' W 009°32'55 9.2
2017-Jun-15 19:30N 52°14' W 010°26'44 8.0
2017-Jun-15 13:59N 51°32' W 010°10'4 8.0
2017-Jun-15 13:27N 51°30' W 010°04'4 7.9
2017-Jun-15 12:59N 51°28' W 009°59'4 7.8
2017-Jun-15 12:29N 51°27' W 009°53'4 7.8
2017-Jun-15 12:00N 51°26' W 009°47'4 7.9
2017-Jun-15 11:30N 51°25' W 009°41'4 7.9
2017-Jun-15 11:00N 51°25' W 009°35'4 8.0
2017-Jun-15 10:30N 51°25' W 009°28'4 7.8
2017-Jun-15 10:00N 51°25' W 009°22'4 7.7
2017-Jun-15 09:30N 51°25' W 009°16'4 7.5
2017-Jun-15 09:00N 51°26' W 009°10'4 7.5
2017-Jun-15 08:30N 51°26' W 009°04'4 7.5
2017-Jun-15 08:00N 51°27' W 008°58'4 7.5
2017-Jun-15 07:27N 51°27' W 008°51'4 7.4
2017-Jun-15 06:58N 51°28' W 008°46'4 7.3
2017-Jun-15 06:29N 51°28' W 008°40'3 6.9
2017-Jun-15 06:00N 51°29' W 008°35'3 6.9
2017-Jun-15 05:30N 51°29' W 008°29'3 7.0
2017-Jun-15 05:00N 51°30' W 008°24'4 7.2
2017-Jun-15 04:30N 51°30' W 008°18'4 7.2
2017-Jun-15 04:00N 51°31' W 008°12'4 7.3
2017-Jun-15 03:30N 51°31' W 008°06'4 7.3
2017-Jun-15 03:00N 51°31' W 008°01'4 7.1
2017-Jun-15 02:30N 51°32' W 007°55'4 7.3
2017-Jun-15 02:00N 51°32' W 007°49'4 7.5
2017-Jun-15 01:30N 51°32' W 007°43'4 7.5
2017-Jun-15 01:00N 51°33' W 007°37'4 7.2
2017-Jun-15 00:30N 51°34' W 007°31'3 6.7
2017-Jun-15 00:00N 51°34' W 007°26'3 6.4
2017-Jun-14 23:30N 51°34' W 007°21'2 0.5
2017-Jun-14 19:39N 51°35' W 007°18'2 5.3
2017-Jun-14 19:17N 51°35' W 007°15'2 5.6
2017-Jun-14 18:59N 51°35' W 007°12'3 5.7
2017-Jun-14 18:30N 51°35' W 007°08'1 1.8
2017-Jun-14 17:45N 51°35' W 007°10'3 8.1
2017-Jun-14 17:25N 51°35' W 007°14'2 4.3
2017-Jun-14 17:00N 51°35' W 007°17'4 7.1
2017-Jun-14 16:30N 51°35' W 007°11'4 7.2
2017-Jun-14 15:58N 51°35' W 007°05'1 2.1
2017-Jun-14 15:24N 51°35' W 007°07'3 8.1
2017-Jun-14 15:00N 51°35' W 007°12'0 0.3
2017-Jun-14 14:00N 51°36' W 007°12'4 7.7
2017-Jun-14 13:30N 51°36' W 007°06'4 7.8
2017-Jun-14 12:59N 51°36' W 006°59'4 7.9
2017-Jun-14 12:30N 51°36' W 006°53'0 0.3
2017-Jun-14 11:54N 51°36' W 006°53'7 7.6
2017-Jun-14 10:56N 51°36' W 007°04'3 5.8
2017-Jun-14 10:25N 51°36' W 006°59'4 7.7
2017-Jun-14 09:56N 51°36' W 006°53'2 1.9
2017-Jun-14 08:53N 51°37' W 006°56'0 0.3
2017-Jun-14 08:17N 51°37' W 006°56'1 2.0
2017-Jun-14 08:00N 51°36' W 006°56'6 5.6
2017-Jun-14 07:00N 51°36' W 007°05'4 6.9
2017-Jun-14 06:30N 51°36' W 006°59'4 7.0
2017-Jun-14 05:57N 51°36' W 006°53'8 4.8
2017-Jun-14 04:21N 51°36' W 007°05'3 4.9
2017-Jun-14 03:45N 51°36' W 007°10'2 7.8
2017-Jun-14 03:30N 51°36' W 007°13'1 1.3
2017-Jun-14 02:59N 51°36' W 007°14'1 2.5
2017-Jun-14 02:29N 51°36' W 007°16'4 7.7
2017-Jun-14 01:56N 51°36' W 007°09'2 1.5
2017-Jun-14 00:51N 51°36' W 007°12'3 7.9
2017-Jun-14 00:30N 51°36' W 007°16'2 3.6
2017-Jun-13 23:57N 51°36' W 007°13'4 7.8
2017-Jun-13 23:27N 51°36' W 007°07'3 3.4
2017-Jun-13 22:36N 51°36' W 007°12'4 8.2
2017-Jun-13 22:09N 51°36' W 007°18'0 3.5
2017-Jun-13 22:00N 51°37' W 007°17'1 0.3
2017-Jun-13 19:54N 51°37' W 007°18'3 7.0
2017-Jun-13 19:30N 51°37' W 007°13'6 4.8
2017-Jun-13 18:14N 51°37' W 007°04'2 7.5
2017-Jun-13 17:55N 51°36' W 006°60'3 7.6
2017-Jun-13 17:30N 51°36' W 006°55'6 1.7
2017-Jun-13 13:49N 51°42' W 006°60'3 4.3
2017-Jun-13 13:11N 51°42' W 007°04'4 7.7
2017-Jun-13 12:43N 51°38' W 007°04'2 3.2
2017-Jun-13 12:11N 51°37' W 007°04'4 7.6
2017-Jun-13 11:37N 51°37' W 006°57'1 7.6
2017-Jun-13 11:30N 51°37' W 006°55'4 6.6
2017-Jun-13 10:57N 51°37' W 006°49'  

Dump ship's entire track history